Time;durP1;ratioP1;P1;durP2;ratioP2;P2;SDS_P1;SDS_P2;PMS_P1;PMS_P2;Temp;Humidity;BMP_temperature;BMP_pressure;BME280_temperature;BME280_humidity;BME280_pressure;Samples;Min_cycle;Max_cycle;Signal;HPM_P1;HPM_P2
2022/10/06 00:08:52;;;;;;;0.93;0.70;;;;;;;17.74;100.00;101519.56;21211874;27;20071;-75
2022/10/06 00:18:55;;;;;;;1.10;0.90;;;;;;;17.53;100.00;101499.56;21209626;27;20126;-75
2022/10/06 00:28:57;;;;;;;0.90;0.70;;;;;;;17.37;100.00;101490.97;21182728;27;20043;-75
2022/10/06 00:38:58;;;;;;;1.02;0.63;;;;;;;17.73;100.00;101577.97;21182485;27;20055;-75
2022/10/06 00:49:15;;;;;;;0.57;0.52;;;;;;;17.73;100.00;101591.44;21226354;27;20039;-75
2022/10/06 00:59:17;;;;;;;0.88;0.70;;;;;;;17.72;100.00;101619.34;21224222;27;20499;-75
2022/10/06 01:09:20;;;;;;;0.43;0.43;;;;;;;17.72;100.00;101621.16;21223063;27;20071;-75
2022/10/06 01:19:39;;;;;;;0.57;0.57;;;;;;;17.64;100.00;101613.66;21222559;27;20045;-75
2022/10/06 01:29:42;;;;;;;1.13;0.60;;;;;;;17.70;100.00;101669.75;21172111;27;20046;-75
2022/10/06 01:39:44;;;;;;;0.50;0.50;;;;;;;17.71;100.00;101687.63;21220476;27;20135;-75
2022/10/06 01:49:46;;;;;;;0.75;0.70;;;;;;;17.72;100.00;101691.16;21203513;27;20515;-74
2022/10/06 01:59:48;;;;;;;0.75;0.55;;;;;;;17.52;100.00;101674.69;21202096;27;20053;-75
2022/10/06 02:09:56;;;;;;;1.33;0.60;;;;;;;17.71;100.00;101708.28;21218880;27;20039;-75
2022/10/06 02:19:58;;;;;;;1.90;0.70;;;;;;;17.71;100.00;101736.09;21183260;27;20083;-75
2022/10/06 02:30:00;;;;;;;0.50;0.50;;;;;;;17.71;100.00;101752.25;21146350;27;20104;-74
2022/10/06 02:40:03;;;;;;;0.88;0.70;;;;;;;17.63;100.00;101770.78;21199732;27;20410;-75
2022/10/06 02:50:07;;;;;;;0.70;0.32;;;;;;;17.69;100.00;101802.69;21214807;27;20039;-75
2022/10/06 03:00:09;;;;;;;0.60;0.60;;;;;;;17.52;100.00;101785.91;21198210;27;20059;-75
2022/10/06 03:10:11;;;;;;;0.70;0.43;;;;;;;17.58;100.00;101816.06;21213389;27;20047;-75
2022/10/06 03:20:13;;;;;;;0.70;0.50;;;;;;;17.20;100.00;101764.88;21213358;27;20035;-75
2022/10/06 03:30:14;;;;;;;0.55;0.55;;;;;;;17.69;100.00;101870.00;21103439;27;20062;-75
2022/10/06 03:40:16;;;;;;;0.73;0.40;;;;;;;17.68;100.00;101881.75;21195594;27;20045;-75
2022/10/06 03:50:18;;;;;;;0.30;0.30;;;;;;;17.67;100.00;101902.41;21149752;27;20059;-75
2022/10/06 04:00:19;;;;;;;0.65;0.65;;;;;;;17.68;100.00;101914.91;20737253;27;20080;-74
2022/10/06 04:10:21;;;;;;;1.10;0.47;;;;;;;17.50;100.00;101906.31;20760975;27;20520;-75
2022/10/06 04:20:22;;;;;;;1.15;0.40;;;;;;;17.07;100.00;101845.63;20751000;27;20054;-74
2022/10/06 04:30:25;;;;;;;0.43;0.40;;;;;;;17.66;100.00;101959.94;20826956;27;20136;-76
2022/10/06 04:40:27;;;;;;;0.38;0.30;;;;;;;17.49;100.00;101958.44;20825930;27;20050;-76
2022/10/06 04:50:28;;;;;;;0.50;0.45;;;;;;;17.48;100.00;101967.50;20888867;27;20045;-77
2022/10/06 05:00:47;;;;;;;0.50;0.35;;;;;;;17.66;100.00;102013.81;20707989;27;20042;-75
2022/10/06 05:10:49;;;;;;;1.35;0.40;;;;;;;17.66;100.00;102026.38;20772929;27;20705;-73
2022/10/06 05:20:58;;;;;;;4.78;1.00;;;;;;;17.75;100.00;102041.06;20707573;27;20391;-74
2022/10/06 05:31:13;;;;;;;3.83;0.98;;;;;;;17.82;100.00;102070.16;20723190;27;20125;-73
2022/10/06 05:41:20;;;;;;;3.90;0.88;;;;;;;17.87;100.00;102091.38;20871406;27;20041;-74
2022/10/06 05:51:25;;;;;;;2.75;0.70;;;;;;;17.90;100.00;102106.47;20842841;27;20514;-74
2022/10/06 06:01:33;;;;;;;1.70;0.52;;;;;;;17.91;100.00;102121.66;20787682;27;20061;-74
2022/10/06 06:11:42;;;;;;;3.53;0.70;;;;;;;17.93;100.00;102138.59;20761500;27;20529;-74
2022/10/06 06:21:43;;;;;;;4.83;1.27;;;;;;;17.92;100.00;102148.50;20704180;27;20486;-74
2022/10/06 06:31:47;;;;;;;1.83;0.60;;;;;;;17.93;100.00;102163.72;20755010;27;20124;-74
2022/10/06 06:41:49;;;;;;;2.43;0.80;;;;;;;17.72;100.00;102147.19;20771700;27;20124;-74
2022/10/06 06:52:07;;;;;;;2.85;0.68;;;;;;;18.01;100.00;102206.31;20718236;27;20070;-74
2022/10/06 07:02:12;;;;;;;5.77;1.30;;;;;;;18.03;100.00;102209.75;20749461;27;20498;-74
2022/10/06 07:12:17;;;;;;;2.85;0.88;;;;;;;18.07;100.00;102222.03;20777897;27;20552;-74
2022/10/06 07:32:52;;;;;;;3.40;0.80;;;;;;;18.12;100.00;102262.16;20775939;27;20077;-74
2022/10/06 07:42:55;;;;;;;4.03;1.08;;;;;;;18.21;100.00;102275.00;20799451;27;20049;-74
2022/10/06 07:53:07;;;;;;;3.53;0.65;;;;;;;18.26;100.00;102286.34;20772105;27;20124;-73
2022/10/06 08:03:18;;;;;;;2.58;0.68;;;;;;;18.20;100.00;102294.00;20775438;28;20045;-73
2022/10/06 08:13:20;;;;;;;2.42;1.08;;;;;;;18.36;100.00;102328.88;20756120;27;20045;-74
2022/10/06 08:23:21;;;;;;;2.53;0.98;;;;;;;18.39;100.00;102348.38;20767449;27;20383;-73
2022/10/06 08:33:23;;;;;;;3.38;1.10;;;;;;;18.39;100.00;102363.72;20759718;27;20140;-73
2022/10/06 08:43:24;;;;;;;2.50;0.70;;;;;;;18.35;100.00;102364.88;20722924;27;20553;-73
2022/10/06 08:53:38;;;;;;;3.20;0.95;;;;;;;18.45;100.00;102382.16;20778179;27;20132;-75
2022/10/06 09:03:42;;;;;;;2.33;0.85;;;;;;;18.45;100.00;102383.97;20786348;27;20061;-75
2022/10/06 09:13:53;;;;;;;3.55;0.80;;;;;;;18.44;100.00;102391.22;20766704;27;20049;-74
2022/10/06 09:24:01;;;;;;;2.25;0.70;;;;;;;18.37;100.00;102400.69;20777627;27;20057;-74
2022/10/06 09:34:11;;;;;;;2.90;0.75;;;;;;;18.47;100.00;102431.47;20773458;27;20074;-75
2022/10/06 09:44:27;;;;;;;2.22;1.00;;;;;;;18.47;100.00;102450.34;20795109;27;20041;-74
2022/10/06 09:54:30;;;;;;;1.85;0.60;;;;;;;18.47;100.00;102442.25;20756220;27;20437;-73
2022/10/06 10:04:36;;;;;;;2.20;0.70;;;;;;;18.45;100.00;102456.78;20742387;27;20058;-74
2022/10/06 10:14:37;;;;;;;2.95;1.00;;;;;;;18.44;100.00;102463.16;20743959;27;20058;-72
2022/10/06 10:25:03;;;;;;;4.75;0.85;;;;;;;18.45;100.00;102484.63;20785858;27;20045;-73
2022/10/06 10:35:24;;;;;;;2.55;0.88;;;;;;;18.47;100.00;102495.31;20783812;27;20054;-77
2022/10/06 10:45:34;;;;;;;2.75;0.85;;;;;;;18.47;100.00;102487.22;20738017;27;20053;-73
2022/10/06 10:55:41;;;;;;;2.40;0.85;;;;;;;18.36;100.00;102478.00;20716850;27;20136;-73
2022/10/06 11:06:17;;;;;;;1.40;0.55;;;;;;;18.48;100.00;102506.00;20732412;27;20065;-73
2022/10/06 11:16:39;;;;;;;3.10;0.65;;;;;;;18.50;100.00;102509.47;20662628;28;20054;-72
2022/10/06 11:27:08;;;;;;;1.70;0.60;;;;;;;18.50;100.00;102517.56;20718203;27;20592;-73
2022/10/06 11:37:34;;;;;;;3.25;0.82;;;;;;;18.30;100.00;102491.91;20714642;27;20125;-73
2022/10/06 11:47:57;;;;;;;;;;;;;;;18.45;100.00;102516.13;20753657;27;20055;-73
2022/10/06 11:58:10;;;;;;;1.02;0.40;;;;;;;18.44;100.00;102509.00;20721253;27;19925;-73
2022/10/06 12:08:36;;;;;;;1.77;0.57;;;;;;;18.45;100.00;102506.22;20723108;27;20451;-74
2022/10/06 12:19:06;;;;;;;2.53;0.80;;;;;;;18.51;100.00;102510.31;20713611;27;20494;-74
2022/10/06 12:29:26;;;;;;;1.73;0.90;;;;;;;18.54;100.00;102493.94;20732503;27;20057;-74
2022/10/06 12:39:27;;;;;;;2.45;0.60;;;;;;;18.57;100.00;102493.75;20742499;27;20066;-73
2022/10/06 12:49:34;;;;;;;1.48;0.47;;;;;;;18.59;100.00;102507.13;20764302;27;20064;-73
2022/10/06 12:59:37;;;;;;;2.08;0.55;;;;;;;18.59;100.00;102497.22;20741975;27;20493;-73
2022/10/06 13:09:38;;;;;;;1.77;0.50;;;;;;;18.60;100.00;102504.34;20722602;27;20057;-74
2022/10/06 13:19:43;;;;;;;2.10;0.45;;;;;;;18.61;100.00;102494.41;20727676;27;20144;-73
2022/10/06 13:29:44;;;;;;;4.63;1.10;;;;;;;18.60;100.00;102507.03;20736708;27;20129;-73
2022/10/06 13:39:46;;;;;;;3.38;0.88;;;;;;;18.62;100.00;102496.13;20751250;27;20065;-73
2022/10/06 13:49:52;;;;;;;2.17;0.60;;;;;;;18.49;100.00;102479.88;20694365;27;20517;-73
2022/10/06 14:00:22;;;;;;;1.17;0.60;;;;;;;18.61;100.00;102508.75;20715609;28;20436;-73
2022/10/06 14:10:30;;;;;;;2.35;0.50;;;;;;;18.60;100.00;102498.94;20724488;27;20057;-73
2022/10/06 14:20:37;;;;;;;2.00;0.60;;;;;;;18.52;100.00;102493.16;20703502;27;20050;-73
2022/10/06 14:30:39;;;;;;;0.75;0.43;;;;;;;18.60;100.00;102503.47;20699114;27;20126;-74
2022/10/06 14:40:41;;;;;;;1.08;0.40;;;;;;;18.60;100.00;102509.72;20723606;27;20049;-74
2022/10/06 14:50:43;;;;;;;0.82;0.40;;;;;;;18.61;100.00;102505.19;20727062;27;20049;-74
2022/10/06 15:00:45;;;;;;;1.10;0.40;;;;;;;18.61;100.00;102515.97;20721301;27;20092;-73
2022/10/06 15:10:51;;;;;;;2.88;0.47;;;;;;;18.61;100.00;102511.47;20727119;27;20138;-73
2022/10/06 15:20:53;;;;;;;1.17;0.40;;;;;;;18.61;100.00;102514.16;20698639;27;20072;-74
2022/10/06 15:30:55;;;;;;;1.77;0.85;;;;;;;18.60;100.00;102509.72;20712879;27;20048;-73
2022/10/06 15:41:03;;;;;;;3.30;1.33;;;;;;;18.62;100.00;102501.53;20741325;27;20042;-74
2022/10/06 15:51:04;;;;;;;4.95;1.30;;;;;;;18.63;100.00;102508.66;20713063;28;20524;-74
2022/10/06 16:01:10;;;;;;;7.13;1.13;;;;;;;18.36;100.00;102464.53;20721517;27;20045;-75
2022/10/06 16:11:11;;;;;;;4.70;1.52;;;;;;;18.55;100.00;102506.44;20711249;27;20052;-74
2022/10/06 16:21:13;;;;;;;6.47;1.40;;;;;;;18.27;100.00;102463.28;20706119;27;20045;-74
2022/10/06 16:31:14;;;;;;;5.32;1.52;;;;;;;18.45;100.00;102505.34;20708725;27;20076;-74
2022/10/06 16:41:17;;;;;;;3.60;0.90;;;;;;;18.15;100.00;102455.16;20712449;27;20046;-74
2022/10/06 16:51:28;;;;;;;4.60;1.65;;;;;;;18.36;100.00;102501.44;20749540;27;20050;-75
2022/10/06 17:01:33;;;;;;;4.13;1.52;;;;;;;18.32;100.00;102499.88;20753632;27;20080;-75
2022/10/06 17:11:35;;;;;;;2.77;1.30;;;;;;;18.30;100.00;102507.19;20715490;27;20082;-75
2022/10/06 17:21:36;;;;;;;2.83;1.10;;;;;;;18.27;100.00;102508.28;20743307;27;20045;-75
2022/10/06 17:31:49;;;;;;;5.93;1.23;;;;;;;18.05;100.00;102488.09;20806614;27;20130;-74
2022/10/06 17:41:52;;;;;;;2.63;0.98;;;;;;;18.23;100.00;102528.31;20795502;27;20073;-75
2022/10/06 17:51:54;;;;;;;2.70;0.80;;;;;;;17.94;100.00;102485.19;20754136;27;20109;-74
2022/10/06 18:01:57;;;;;;;3.50;1.50;;;;;;;18.20;100.00;102528.50;20788812;27;20045;-75
2022/10/06 18:12:01;;;;;;;2.95;1.10;;;;;;;18.04;100.00;102507.91;20769599;27;20072;-75
2022/10/06 18:22:11;;;;;;;3.08;1.10;;;;;;;18.17;100.00;102523.31;20772415;27;20539;-74
2022/10/06 18:32:13;;;;;;;2.90;0.93;;;;;;;18.10;100.00;102518.28;20717322;27;20058;-74
2022/10/06 18:42:35;;;;;;;4.13;1.13;;;;;;;17.97;100.00;102493.06;20718068;27;20060;-75
2022/10/06 18:52:36;;;;;;;3.03;0.90;;;;;;;18.14;100.00;102528.91;20746959;27;20059;-75
2022/10/06 19:02:37;;;;;;;4.15;1.27;;;;;;;17.95;100.00;102500.38;20885757;27;20041;-74
2022/10/06 19:12:39;;;;;;;1.90;0.90;;;;;;;17.92;100.00;102500.59;21190340;27;20500;-75
2022/10/06 19:22:42;;;;;;;4.30;0.93;;;;;;;18.09;100.00;102529.19;21213671;27;20050;-75
2022/10/06 19:32:43;;;;;;;1.67;0.73;;;;;;;18.09;100.00;102529.19;21212718;27;20070;-75
2022/10/06 19:42:48;;;;;;;2.83;1.10;;;;;;;18.08;100.00;102525.63;21213103;27;20050;-75
2022/10/06 19:52:50;;;;;;;1.30;0.60;;;;;;;17.82;100.00;102495.78;21211306;27;20111;-75
2022/10/06 20:02:51;;;;;;;1.92;0.80;;;;;;;18.06;100.00;102535.63;21125522;27;20129;-75
2022/10/06 20:12:54;;;;;;;1.42;0.60;;;;;;;17.95;100.00;102503.09;21192919;27;20080;-74
2022/10/06 20:22:55;;;;;;;1.77;0.80;;;;;;;18.05;100.00;102524.97;21211143;27;20561;-74
2022/10/06 20:32:57;;;;;;;2.47;0.70;;;;;;;18.04;100.00;102513.31;21210176;27;20081;-75
2022/10/06 20:42:59;;;;;;;2.55;1.00;;;;;;;18.03;100.00;102511.56;21216033;27;20533;-75
2022/10/06 20:53:01;;;;;;;2.75;0.85;;;;;;;18.02;100.00;102504.44;21227068;27;20058;-75
2022/10/06 21:03:02;;;;;;;1.73;0.80;;;;;;;18.02;100.00;102504.44;21170062;27;20495;-75
2022/10/06 21:13:04;;;;;;;2.40;1.27;;;;;;;18.00;100.00;102495.56;21225497;27;20130;-76
2022/10/06 21:23:05;;;;;;;2.00;0.68;;;;;;;18.00;100.00;102484.78;21223230;27;20115;-74
2022/10/06 21:33:07;;;;;;;0.93;0.50;;;;;;;18.00;100.00;102473.16;21223099;27;20407;-75
2022/10/06 21:43:08;;;;;;;2.80;0.90;;;;;;;17.98;100.00;102459.78;21223118;27;20434;-75
2022/10/06 21:53:10;;;;;;;2.40;0.85;;;;;;;17.98;100.00;102454.38;21219619;27;20126;-75
2022/10/06 22:03:11;;;;;;;2.47;0.77;;;;;;;17.96;100.00;102442.84;21142815;27;20055;-75
2022/10/06 22:13:13;;;;;;;2.90;0.73;;;;;;;17.96;100.00;102440.16;21220565;27;20058;-75
2022/10/06 22:23:14;;;;;;;0.82;0.70;;;;;;;17.93;100.00;102422.38;21217872;27;20104;-75
2022/10/06 22:33:16;;;;;;;1.00;0.80;;;;;;;17.94;100.00;102412.44;21217340;27;20402;-75
2022/10/06 22:43:17;;;;;;;1.80;0.70;;;;;;;17.89;100.00;102398.41;21216735;27;20502;-75
2022/10/06 22:53:22;;;;;;;1.13;0.45;;;;;;;17.93;100.00;102394.53;21217706;27;20051;-77
2022/10/06 23:03:23;;;;;;;0.70;0.40;;;;;;;17.80;100.00;102357.63;21167468;27;20116;-74
2022/10/06 23:13:28;;;;;;;2.17;0.80;;;;;;;17.91;100.00;102373.09;21214251;27;20100;-75
2022/10/06 23:23:30;;;;;;;2.78;0.90;;;;;;;17.91;100.00;102362.31;21215561;27;20100;-75
2022/10/06 23:33:32;;;;;;;1.33;0.70;;;;;;;17.90;100.00;102354.31;21212490;27;20452;-75
2022/10/06 23:43:34;;;;;;;1.25;0.68;;;;;;;17.75;100.00;102316.66;21214247;27;20108;-75
2022/10/06 23:53:36;;;;;;;1.67;0.60;;;;;;;17.89;100.00;102336.44;21213118;27;20072;-75
